• Join FlightAware (Why Join?)
  • Login
  • US Flag 
10:22AM EST


 

Airport Tracker/Info


-or-


 

Live Flight TrackerFlight Track Log ✈ RPA4907 ✈ 04-Jul-2013 ✈ KEWR - KBWI

Flight Track Log - Related Links

Times and Time Zones

All times are in EDT time to prevent confusion due to time zone crossing. See the RPA4907 flight status page for this flight to view local times or setup timezone preferences in your user account.

Time Position Orientation Groundspeed Altitude Reporting Facility
EDT Latitude Longitude Course Direction KTS MPH feet Rate Location/Type
12:26PM 40.6286 -74.2000 246° West 208 239 2,200  Level New York Center
12:27PM 40.5897 -74.2444 221° Southwest 237 273 3,900 2,280 Climbing New York Center
12:28PM 40.5772 -74.4972 245° Southwest  Level FlightAware Approximate
12:28PM 40.6164 -74.3278 293° West 232 267 6,800  Level New York Center
12:29PM 40.5372 -74.6095 245° Southwest  Level FlightAware Approximate
12:29PM 40.6419 -74.3811 302° West 226 260 8,900  Level New York Center
12:30PM 40.4981 -74.7224 246° West  Level FlightAware Approximate
12:30PM 40.6558 -74.4694 282° West 244 281 10,100  Level New York Center
12:31PM 40.4603 -74.8358 246° West  Level FlightAware Approximate
12:31PM 40.6167 -74.5500 237° Southwest 295 339 10,000  Level New York TRACON
12:32PM 40.5667 -74.6500 237° Southwest 283 326 12,000 1,260 Climbing New York TRACON
12:34PM 40.5031 -74.8025 241° Southwest 274 315 14,000 660 Climbing New York Center
12:35PM 40.4517 -74.9083 237° Southwest 295 339 14,000  Level New York Center
12:36PM 40.4022 -75.0036 236° Southwest 313 360 14,000  Level New York Center
12:37PM 40.3453 -75.0792 225° Southwest 327 376 14,000  Level New York Center
12:38PM 40.2817 -75.1650 226° Southwest 332 382 14,000  Level New York Center
12:39PM 40.2133 -75.2639 228° Southwest 332 382 14,000  Level New York Center
12:40PM 40.1519 -75.3494 227° Southwest 332 382 14,000  Level New York Center
12:41PM 40.0881 -75.4347 226° Southwest 332 382 14,000  Level New York Center
12:42PM 40.0261 -75.5228 227° Southwest 332 382 14,000  Level New York Center
12:43PM 39.9708 -75.5978 226° Southwest 332 382 14,000  Level New York Center
12:44PM 39.9044 -75.6933 228° Southwest 332 382 14,000  Level New York Center
12:45PM 39.8611 -75.7822 238° Southwest 332 382 14,000 -420 Level New York Center
12:47PM 39.7500 -76.0000 236° Southwest 326 375 12,800 -720 Descending Potomac TRACON
12:48PM 39.7000 -76.1000 237° Southwest 312 359 11,800 -1,020 Descending Potomac TRACON
12:49PM 39.6167 -76.1333 197° South 288 331 10,800 -1,320 Descending Potomac TRACON
12:50PM 39.5500 -76.1667 201° Southwest 258 297 9,200 -1,680 Descending Potomac TRACON
12:51PM 39.4833 -76.2000 201° Southwest 239 275 7,500 -1,800 Descending Potomac TRACON
12:52PM 39.5000 -76.2667 288° West 252 290 5,600 -1,320 Descending Potomac TRACON
12:53PM 39.5167 -76.3333 288° West 241 277 5,000 -360 Descending Potomac TRACON
12:54PM 39.5000 -76.4167 255° West 229 264 5,000 -60 Level Potomac TRACON
12:55PM 39.4833 -76.5000 255° West 240 276 4,900 -600 Descending Potomac TRACON
12:56PM 39.4667 -76.5667 252° West 242 278 3,900 -1,020 Descending Potomac TRACON
12:57PM 39.4333 -76.6333 237° Southwest 233 268 3,000 -900 Descending Potomac TRACON